sensor_id;sensor_type;location;lat;lon;timestamp;P1;durP1;ratioP1;P2;durP2;ratioP2
66893;SDS011;53801;55.786;49.142;2023-02-15T00:01:24;7.57;;;2.60;;
66893;SDS011;53801;55.786;49.142;2023-02-15T00:03:50;7.03;;;2.57;;
66893;SDS011;53801;55.786;49.142;2023-02-15T00:06:16;7.95;;;2.60;;
66893;SDS011;53801;55.786;49.142;2023-02-15T00:08:41;7.93;;;2.50;;
66893;SDS011;53801;55.786;49.142;2023-02-15T00:11:07;7.60;;;2.40;;
66893;SDS011;53801;55.786;49.142;2023-02-15T00:13:33;5.25;;;2.55;;
66893;SDS011;53801;55.786;49.142;2023-02-15T00:16:01;6.60;;;2.42;;
66893;SDS011;53801;55.786;49.142;2023-02-15T00:18:26;6.65;;;2.47;;
66893;SDS011;53801;55.786;49.142;2023-02-15T00:20:52;8.73;;;2.47;;
66893;SDS011;53801;55.786;49.142;2023-02-15T00:23:18;8.70;;;3.13;;
66893;SDS011;53801;55.786;49.142;2023-02-15T00:25:43;6.85;;;2.63;;
66893;SDS011;53801;55.786;49.142;2023-02-15T00:28:09;8.63;;;2.67;;
66893;SDS011;53801;55.786;49.142;2023-02-15T00:30:34;8.30;;;2.60;;
66893;SDS011;53801;55.786;49.142;2023-02-15T00:33:00;7.27;;;2.80;;
66893;SDS011;53801;55.786;49.142;2023-02-15T00:35:25;6.85;;;2.17;;
66893;SDS011;53801;55.786;49.142;2023-02-15T00:37:51;6.80;;;2.60;;
66893;SDS011;53801;55.786;49.142;2023-02-15T00:40:17;7.45;;;2.80;;
66893;SDS011;53801;55.786;49.142;2023-02-15T00:42:43;7.00;;;2.87;;
66893;SDS011;53801;55.786;49.142;2023-02-15T00:45:08;6.73;;;2.57;;
66893;SDS011;53801;55.786;49.142;2023-02-15T00:47:34;9.20;;;3.38;;
66893;SDS011;53801;55.786;49.142;2023-02-15T00:50:02;9.73;;;3.07;;
66893;SDS011;53801;55.786;49.142;2023-02-15T00:52:29;7.20;;;2.45;;
66893;SDS011;53801;55.786;49.142;2023-02-15T00:54:54;7.60;;;2.73;;
66893;SDS011;53801;55.786;49.142;2023-02-15T00:57:19;13.07;;;3.40;;
66893;SDS011;53801;55.786;49.142;2023-02-15T00:59:45;7.43;;;2.30;;
66893;SDS011;53801;55.786;49.142;2023-02-15T01:02:10;9.53;;;3.17;;
66893;SDS011;53801;55.786;49.142;2023-02-15T01:04:36;9.43;;;2.90;;
66893;SDS011;53801;55.786;49.142;2023-02-15T01:07:01;7.07;;;2.20;;
66893;SDS011;53801;55.786;49.142;2023-02-15T01:09:29;8.15;;;2.85;;
66893;SDS011;53801;55.786;49.142;2023-02-15T01:11:54;9.40;;;3.37;;
66893;SDS011;53801;55.786;49.142;2023-02-15T01:14:19;6.87;;;2.87;;
66893;SDS011;53801;55.786;49.142;2023-02-15T01:16:45;9.93;;;3.63;;
66893;SDS011;53801;55.786;49.142;2023-02-15T01:19:10;11.02;;;3.25;;
66893;SDS011;53801;55.786;49.142;2023-02-15T01:21:35;12.20;;;4.17;;
66893;SDS011;53801;55.786;49.142;2023-02-15T01:24:03;10.57;;;3.97;;
66893;SDS011;53801;55.786;49.142;2023-02-15T01:26:35;11.52;;;3.70;;
66893;SDS011;53801;55.786;49.142;2023-02-15T01:29:01;11.27;;;4.07;;
66893;SDS011;53801;55.786;49.142;2023-02-15T01:31:27;10.03;;;3.80;;
66893;SDS011;53801;55.786;49.142;2023-02-15T01:33:52;10.37;;;4.20;;
66893;SDS011;53801;55.786;49.142;2023-02-15T01:36:20;10.90;;;4.63;;
66893;SDS011;53801;55.786;49.142;2023-02-15T01:38:46;11.13;;;3.78;;
66893;SDS011;53801;55.786;49.142;2023-02-15T01:41:11;11.32;;;4.32;;
66893;SDS011;53801;55.786;49.142;2023-02-15T01:44:01;10.10;;;3.87;;
66893;SDS011;53801;55.786;49.142;2023-02-15T01:46:28;11.05;;;4.05;;
66893;SDS011;53801;55.786;49.142;2023-02-15T01:49:03;9.43;;;3.40;;
66893;SDS011;53801;55.786;49.142;2023-02-15T01:51:31;8.27;;;2.85;;
66893;SDS011;53801;55.786;49.142;2023-02-15T01:54:02;8.77;;;3.38;;
66893;SDS011;53801;55.786;49.142;2023-02-15T01:56:33;9.27;;;3.03;;
66893;SDS011;53801;55.786;49.142;2023-02-15T01:59:00;11.40;;;3.65;;
66893;SDS011;53801;55.786;49.142;2023-02-15T02:01:27;10.73;;;3.20;;
66893;SDS011;53801;55.786;49.142;2023-02-15T02:03:58;8.53;;;3.40;;
66893;SDS011;53801;55.786;49.142;2023-02-15T02:06:26;10.50;;;3.55;;
66893;SDS011;53801;55.786;49.142;2023-02-15T02:08:52;10.70;;;3.47;;
66893;SDS011;53801;55.786;49.142;2023-02-15T02:11:18;12.18;;;4.13;;
66893;SDS011;53801;55.786;49.142;2023-02-15T02:13:44;12.67;;;4.60;;
66893;SDS011;53801;55.786;49.142;2023-02-15T02:16:38;17.88;;;5.03;;
66893;SDS011;53801;55.786;49.142;2023-02-15T02:19:31;14.52;;;4.60;;
66893;SDS011;53801;55.786;49.142;2023-02-15T02:27:19;14.50;;;4.40;;
66893;SDS011;53801;55.786;49.142;2023-02-15T02:29:54;13.45;;;4.57;;
66893;SDS011;53801;55.786;49.142;2023-02-15T02:42:34;15.55;;;5.68;;
66893;SDS011;53801;55.786;49.142;2023-02-15T02:45:08;14.83;;;5.37;;
66893;SDS011;53801;55.786;49.142;2023-02-15T02:47:43;14.57;;;5.22;;
66893;SDS011;53801;55.786;49.142;2023-02-15T02:50:12;15.40;;;5.30;;
66893;SDS011;53801;55.786;49.142;2023-02-15T02:52:45;15.95;;;5.45;;
66893;SDS011;53801;55.786;49.142;2023-02-15T03:00:31;18.25;;;5.45;;
66893;SDS011;53801;55.786;49.142;2023-02-15T03:03:00;18.77;;;5.68;;
66893;SDS011;53801;55.786;49.142;2023-02-15T03:05:30;15.77;;;5.55;;
66893;SDS011;53801;55.786;49.142;2023-02-15T03:07:56;20.93;;;6.00;;
66893;SDS011;53801;55.786;49.142;2023-02-15T03:10:22;18.23;;;5.95;;
66893;SDS011;53801;55.786;49.142;2023-02-15T03:12:48;15.27;;;5.65;;
66893;SDS011;53801;55.786;49.142;2023-02-15T03:15:16;15.70;;;5.95;;
66893;SDS011;53801;55.786;49.142;2023-02-15T03:17:43;14.23;;;5.73;;
66893;SDS011;53801;55.786;49.142;2023-02-15T03:20:18;17.67;;;5.93;;
66893;SDS011;53801;55.786;49.142;2023-02-15T03:22:50;16.80;;;5.68;;
66893;SDS011;53801;55.786;49.142;2023-02-15T03:25:20;18.20;;;5.47;;
66893;SDS011;53801;55.786;49.142;2023-02-15T03:27:51;15.35;;;6.45;;
66893;SDS011;53801;55.786;49.142;2023-02-15T03:30:18;15.53;;;5.57;;
66893;SDS011;53801;55.786;49.142;2023-02-15T03:32:46;19.85;;;6.07;;
66893;SDS011;53801;55.786;49.142;2023-02-15T03:35:12;11.98;;;4.72;;
66893;SDS011;53801;55.786;49.142;2023-02-15T03:37:41;15.97;;;5.37;;
66893;SDS011;53801;55.786;49.142;2023-02-15T03:42:59;14.02;;;5.38;;
66893;SDS011;53801;55.786;49.142;2023-02-15T03:45:27;15.48;;;4.95;;
66893;SDS011;53801;55.786;49.142;2023-02-15T03:47:54;15.17;;;5.50;;
66893;SDS011;53801;55.786;49.142;2023-02-15T03:50:30;17.83;;;5.15;;
66893;SDS011;53801;55.786;49.142;2023-02-15T03:53:17;16.27;;;5.20;;
66893;SDS011;53801;55.786;49.142;2023-02-15T03:55:47;19.23;;;5.30;;
66893;SDS011;53801;55.786;49.142;2023-02-15T03:58:12;16.73;;;5.25;;
66893;SDS011;53801;55.786;49.142;2023-02-15T04:00:57;13.70;;;5.63;;
66893;SDS011;53801;55.786;49.142;2023-02-15T04:04:03;16.10;;;5.13;;
66893;SDS011;53801;55.786;49.142;2023-02-15T04:06:27;14.88;;;5.45;;
66893;SDS011;53801;55.786;49.142;2023-02-15T04:08:53;12.23;;;4.73;;
66893;SDS011;53801;55.786;49.142;2023-02-15T04:11:37;11.95;;;3.78;;
66893;SDS011;53801;55.786;49.142;2023-02-15T04:14:02;16.57;;;4.27;;
66893;SDS011;53801;55.786;49.142;2023-02-15T04:16:47;11.30;;;3.78;;
66893;SDS011;53801;55.786;49.142;2023-02-15T04:19:13;14.37;;;4.00;;
66893;SDS011;53801;55.786;49.142;2023-02-15T04:21:57;9.07;;;3.17;;
66893;SDS011;53801;55.786;49.142;2023-02-15T04:24:41;7.10;;;2.10;;
66893;SDS011;53801;55.786;49.142;2023-02-15T04:27:25;11.87;;;2.73;;
66893;SDS011;53801;55.786;49.142;2023-02-15T04:29:50;8.27;;;2.93;;
66893;SDS011;53801;55.786;49.142;2023-02-15T04:32:16;10.13;;;3.25;;
66893;SDS011;53801;55.786;49.142;2023-02-15T04:34:41;6.83;;;2.23;;
66893;SDS011;53801;55.786;49.142;2023-02-15T04:37:06;6.43;;;2.00;;
66893;SDS011;53801;55.786;49.142;2023-02-15T04:39:32;9.50;;;2.90;;
66893;SDS011;53801;55.786;49.142;2023-02-15T04:41:57;8.27;;;2.73;;
66893;SDS011;53801;55.786;49.142;2023-02-15T04:44:23;8.13;;;3.40;;
66893;SDS011;53801;55.786;49.142;2023-02-15T04:46:48;13.47;;;4.13;;
66893;SDS011;53801;55.786;49.142;2023-02-15T04:49:14;11.10;;;3.40;;
66893;SDS011;53801;55.786;49.142;2023-02-15T04:51:40;9.87;;;3.13;;
66893;SDS011;53801;55.786;49.142;2023-02-15T04:54:05;14.03;;;4.03;;
66893;SDS011;53801;55.786;49.142;2023-02-15T04:56:31;14.38;;;4.00;;
66893;SDS011;53801;55.786;49.142;2023-02-15T04:58:59;13.10;;;4.10;;
66893;SDS011;53801;55.786;49.142;2023-02-15T05:01:25;13.88;;;4.47;;
66893;SDS011;53801;55.786;49.142;2023-02-15T05:03:53;16.30;;;4.87;;
66893;SDS011;53801;55.786;49.142;2023-02-15T05:06:19;12.73;;;3.30;;
66893;SDS011;53801;55.786;49.142;2023-02-15T05:08:45;16.73;;;4.60;;
66893;SDS011;53801;55.786;49.142;2023-02-15T05:11:11;8.48;;;3.45;;
66893;SDS011;53801;55.786;49.142;2023-02-15T05:13:36;9.27;;;3.00;;
66893;SDS011;53801;55.786;49.142;2023-02-15T05:16:01;13.47;;;4.10;;
66893;SDS011;53801;55.786;49.142;2023-02-15T05:18:27;12.20;;;4.10;;
66893;SDS011;53801;55.786;49.142;2023-02-15T05:20:53;12.90;;;4.38;;
66893;SDS011;53801;55.786;49.142;2023-02-15T05:23:19;11.35;;;4.13;;
66893;SDS011;53801;55.786;49.142;2023-02-15T05:25:48;15.00;;;4.33;;
66893;SDS011;53801;55.786;49.142;2023-02-15T05:28:33;10.52;;;4.07;;
66893;SDS011;53801;55.786;49.142;2023-02-15T05:33:30;10.73;;;3.35;;
66893;SDS011;53801;55.786;49.142;2023-02-15T05:35:55;13.23;;;4.38;;
66893;SDS011;53801;55.786;49.142;2023-02-15T05:38:21;10.43;;;3.60;;
66893;SDS011;53801;55.786;49.142;2023-02-15T05:40:46;11.63;;;3.50;;
66893;SDS011;53801;55.786;49.142;2023-02-15T05:43:12;10.23;;;3.33;;
66893;SDS011;53801;55.786;49.142;2023-02-15T05:45:37;8.67;;;3.27;;
66893;SDS011;53801;55.786;49.142;2023-02-15T05:48:03;10.18;;;4.05;;
66893;SDS011;53801;55.786;49.142;2023-02-15T05:50:28;13.05;;;3.97;;
66893;SDS011;53801;55.786;49.142;2023-02-15T05:52:53;9.87;;;3.07;;
66893;SDS011;53801;55.786;49.142;2023-02-15T05:55:19;10.00;;;3.20;;
66893;SDS011;53801;55.786;49.142;2023-02-15T05:57:45;12.68;;;3.90;;
66893;SDS011;53801;55.786;49.142;2023-02-15T06:00:11;9.07;;;3.30;;
66893;SDS011;53801;55.786;49.142;2023-02-15T06:02:37;13.73;;;4.75;;
66893;SDS011;53801;55.786;49.142;2023-02-15T06:05:03;15.50;;;4.20;;
66893;SDS011;53801;55.786;49.142;2023-02-15T06:10:04;10.82;;;4.18;;
66893;SDS011;53801;55.786;49.142;2023-02-15T06:12:30;16.65;;;4.38;;
66893;SDS011;53801;55.786;49.142;2023-02-15T06:14:56;14.15;;;4.45;;
66893;SDS011;53801;55.786;49.142;2023-02-15T06:17:22;12.43;;;4.50;;
66893;SDS011;53801;55.786;49.142;2023-02-15T06:19:47;13.52;;;4.13;;
66893;SDS011;53801;55.786;49.142;2023-02-15T06:22:13;12.67;;;3.97;;
66893;SDS011;53801;55.786;49.142;2023-02-15T06:24:41;11.02;;;4.25;;
66893;SDS011;53801;55.786;49.142;2023-02-15T06:27:11;10.40;;;3.97;;
66893;SDS011;53801;55.786;49.142;2023-02-15T06:29:36;12.43;;;4.32;;
66893;SDS011;53801;55.786;49.142;2023-02-15T06:32:02;14.52;;;4.63;;
66893;SDS011;53801;55.786;49.142;2023-02-15T06:34:28;16.15;;;4.30;;
66893;SDS011;53801;55.786;49.142;2023-02-15T06:36:53;13.83;;;4.40;;
66893;SDS011;53801;55.786;49.142;2023-02-15T06:39:19;14.45;;;4.47;;
66893;SDS011;53801;55.786;49.142;2023-02-15T06:41:44;12.55;;;3.95;;
66893;SDS011;53801;55.786;49.142;2023-02-15T06:44:10;14.80;;;4.43;;
66893;SDS011;53801;55.786;49.142;2023-02-15T06:46:35;15.37;;;4.53;;
66893;SDS011;53801;55.786;49.142;2023-02-15T06:49:00;8.90;;;2.77;;
66893;SDS011;53801;55.786;49.142;2023-02-15T06:51:26;10.00;;;3.83;;
66893;SDS011;53801;55.786;49.142;2023-02-15T06:53:51;9.57;;;3.35;;
66893;SDS011;53801;55.786;49.142;2023-02-15T06:56:17;11.73;;;3.90;;
66893;SDS011;53801;55.786;49.142;2023-02-15T06:58:42;12.43;;;3.60;;
66893;SDS011;53801;55.786;49.142;2023-02-15T07:01:23;12.23;;;4.28;;
66893;SDS011;53801;55.786;49.142;2023-02-15T07:03:49;14.27;;;3.90;;
66893;SDS011;53801;55.786;49.142;2023-02-15T07:09:35;10.95;;;3.17;;
66893;SDS011;53801;55.786;49.142;2023-02-15T07:12:01;8.73;;;3.15;;
66893;SDS011;53801;55.786;49.142;2023-02-15T07:14:45;13.63;;;4.30;;
66893;SDS011;53801;55.786;49.142;2023-02-15T07:17:11;13.00;;;4.38;;
66893;SDS011;53801;55.786;49.142;2023-02-15T07:19:36;13.23;;;3.77;;
66893;SDS011;53801;55.786;49.142;2023-02-15T07:22:02;10.50;;;2.77;;
66893;SDS011;53801;55.786;49.142;2023-02-15T07:24:28;13.18;;;4.30;;
66893;SDS011;53801;55.786;49.142;2023-02-15T07:26:54;12.93;;;4.67;;
66893;SDS011;53801;55.786;49.142;2023-02-15T07:29:19;9.53;;;3.47;;
66893;SDS011;53801;55.786;49.142;2023-02-15T07:31:45;11.53;;;3.47;;
66893;SDS011;53801;55.786;49.142;2023-02-15T07:34:11;8.27;;;2.78;;
66893;SDS011;53801;55.786;49.142;2023-02-15T07:36:39;10.88;;;3.05;;
66893;SDS011;53801;55.786;49.142;2023-02-15T07:39:04;9.73;;;3.80;;
66893;SDS011;53801;55.786;49.142;2023-02-15T07:41:30;12.10;;;2.97;;
66893;SDS011;53801;55.786;49.142;2023-02-15T07:43:55;12.00;;;3.60;;
66893;SDS011;53801;55.786;49.142;2023-02-15T07:46:21;13.20;;;5.03;;
66893;SDS011;53801;55.786;49.142;2023-02-15T07:48:46;12.05;;;3.67;;
66893;SDS011;53801;55.786;49.142;2023-02-15T07:51:12;9.90;;;3.88;;
66893;SDS011;53801;55.786;49.142;2023-02-15T07:53:39;9.55;;;3.88;;
66893;SDS011;53801;55.786;49.142;2023-02-15T07:56:06;7.73;;;2.67;;
66893;SDS011;53801;55.786;49.142;2023-02-15T07:58:32;11.98;;;3.67;;
66893;SDS011;53801;55.786;49.142;2023-02-15T08:01:27;10.50;;;3.20;;
66893;SDS011;53801;55.786;49.142;2023-02-15T08:03:53;17.65;;;3.30;;
66893;SDS011;53801;55.786;49.142;2023-02-15T08:06:21;11.67;;;3.87;;
66893;SDS011;53801;55.786;49.142;2023-02-15T08:08:46;10.60;;;3.83;;
66893;SDS011;53801;55.786;49.142;2023-02-15T08:14:23;13.37;;;3.73;;
66893;SDS011;53801;55.786;49.142;2023-02-15T08:16:50;10.73;;;3.30;;
66893;SDS011;53801;55.786;49.142;2023-02-15T08:19:19;11.35;;;3.75;;
66893;SDS011;53801;55.786;49.142;2023-02-15T08:21:47;13.05;;;4.05;;
66893;SDS011;53801;55.786;49.142;2023-02-15T08:24:13;14.32;;;3.70;;
66893;SDS011;53801;55.786;49.142;2023-02-15T08:26:49;9.60;;;3.07;;
66893;SDS011;53801;55.786;49.142;2023-02-15T08:29:35;8.85;;;3.85;;
66893;SDS011;53801;55.786;49.142;2023-02-15T08:32:02;9.95;;;4.13;;
66893;SDS011;53801;55.786;49.142;2023-02-15T08:34:32;12.27;;;4.13;;
66893;SDS011;53801;55.786;49.142;2023-02-15T08:36:59;10.82;;;3.65;;
66893;SDS011;53801;55.786;49.142;2023-02-15T08:39:25;9.50;;;3.53;;
66893;SDS011;53801;55.786;49.142;2023-02-15T08:41:51;10.35;;;3.67;;
66893;SDS011;53801;55.786;49.142;2023-02-15T08:44:17;16.53;;;4.23;;
66893;SDS011;53801;55.786;49.142;2023-02-15T08:46:43;11.25;;;3.85;;
66893;SDS011;53801;55.786;49.142;2023-02-15T08:49:10;10.23;;;3.40;;
66893;SDS011;53801;55.786;49.142;2023-02-15T08:51:37;9.85;;;3.20;;
66893;SDS011;53801;55.786;49.142;2023-02-15T08:54:03;10.50;;;3.50;;
66893;SDS011;53801;55.786;49.142;2023-02-15T08:56:31;11.43;;;3.75;;
66893;SDS011;53801;55.786;49.142;2023-02-15T08:58:57;11.40;;;3.88;;
66893;SDS011;53801;55.786;49.142;2023-02-15T09:01:27;11.37;;;3.73;;
66893;SDS011;53801;55.786;49.142;2023-02-15T09:04:00;10.88;;;3.75;;
66893;SDS011;53801;55.786;49.142;2023-02-15T09:06:26;11.07;;;3.70;;
66893;SDS011;53801;55.786;49.142;2023-02-15T09:08:52;15.07;;;4.65;;
66893;SDS011;53801;55.786;49.142;2023-02-15T09:11:19;12.30;;;3.70;;
66893;SDS011;53801;55.786;49.142;2023-02-15T09:13:49;10.27;;;3.03;;
66893;SDS011;53801;55.786;49.142;2023-02-15T09:16:15;9.50;;;3.60;;
66893;SDS011;53801;55.786;49.142;2023-02-15T09:18:44;13.18;;;4.00;;
66893;SDS011;53801;55.786;49.142;2023-02-15T09:21:10;9.47;;;3.70;;
66893;SDS011;53801;55.786;49.142;2023-02-15T09:23:38;10.75;;;3.70;;
66893;SDS011;53801;55.786;49.142;2023-02-15T09:34:16;11.10;;;3.28;;
66893;SDS011;53801;55.786;49.142;2023-02-15T09:36:42;16.08;;;4.72;;
66893;SDS011;53801;55.786;49.142;2023-02-15T09:39:11;13.65;;;3.35;;
66893;SDS011;53801;55.786;49.142;2023-02-15T09:58:48;10.80;;;3.27;;
66893;SDS011;53801;55.786;49.142;2023-02-15T10:20:59;7.95;;;3.40;;
66893;SDS011;53801;55.786;49.142;2023-02-15T10:28:30;9.60;;;3.90;;
66893;SDS011;53801;55.786;49.142;2023-02-15T10:31:13;6.63;;;2.70;;
66893;SDS011;53801;55.786;49.142;2023-02-15T10:33:42;8.70;;;3.03;;
66893;SDS011;53801;55.786;49.142;2023-02-15T10:51:21;12.87;;;4.00;;
66893;SDS011;53801;55.786;49.142;2023-02-15T10:59:22;6.57;;;2.67;;
66893;SDS011;53801;55.786;49.142;2023-02-15T11:01:54;6.85;;;2.60;;
66893;SDS011;53801;55.786;49.142;2023-02-15T11:04:41;12.77;;;3.33;;
66893;SDS011;53801;55.786;49.142;2023-02-15T11:09:44;10.30;;;3.38;;
66893;SDS011;53801;55.786;49.142;2023-02-15T11:12:16;12.40;;;2.90;;
66893;SDS011;53801;55.786;49.142;2023-02-15T11:14:45;7.82;;;2.10;;
66893;SDS011;53801;55.786;49.142;2023-02-15T11:17:17;11.17;;;3.10;;
66893;SDS011;53801;55.786;49.142;2023-02-15T11:19:51;10.02;;;3.35;;
66893;SDS011;53801;55.786;49.142;2023-02-15T11:22:19;11.45;;;3.08;;
66893;SDS011;53801;55.786;49.142;2023-02-15T11:24:45;11.52;;;2.38;;
66893;SDS011;53801;55.786;49.142;2023-02-15T11:29:38;11.98;;;2.85;;
66893;SDS011;53801;55.786;49.142;2023-02-15T11:32:19;10.70;;;3.00;;
66893;SDS011;53801;55.786;49.142;2023-02-15T11:34:51;41.13;;;3.60;;
66893;SDS011;53801;55.786;49.142;2023-02-15T11:37:20;13.43;;;3.80;;
66893;SDS011;53801;55.786;49.142;2023-02-15T11:39:47;10.85;;;4.05;;
66893;SDS011;53801;55.786;49.142;2023-02-15T11:42:18;8.48;;;2.38;;
66893;SDS011;53801;55.786;49.142;2023-02-15T11:47:20;10.90;;;3.63;;
66893;SDS011;53801;55.786;49.142;2023-02-15T11:49:46;12.20;;;4.20;;
66893;SDS011;53801;55.786;49.142;2023-02-15T11:52:12;8.60;;;3.03;;
66893;SDS011;53801;55.786;49.142;2023-02-15T11:54:43;10.13;;;2.77;;
66893;SDS011;53801;55.786;49.142;2023-02-15T11:57:14;12.45;;;3.53;;
66893;SDS011;53801;55.786;49.142;2023-02-15T11:59:42;11.38;;;3.60;;
66893;SDS011;53801;55.786;49.142;2023-02-15T12:02:15;11.90;;;3.78;;
66893;SDS011;53801;55.786;49.142;2023-02-15T12:04:41;8.77;;;3.07;;
66893;SDS011;53801;55.786;49.142;2023-02-15T12:07:21;17.85;;;4.13;;
66893;SDS011;53801;55.786;49.142;2023-02-15T12:10:02;7.97;;;3.20;;
66893;SDS011;53801;55.786;49.142;2023-02-15T12:12:31;12.55;;;3.38;;
66893;SDS011;53801;55.786;49.142;2023-02-15T12:22:50;8.40;;;2.78;;
66893;SDS011;53801;55.786;49.142;2023-02-15T12:25:22;10.88;;;2.90;;
66893;SDS011;53801;55.786;49.142;2023-02-15T12:27:52;11.90;;;2.33;;
66893;SDS011;53801;55.786;49.142;2023-02-15T12:30:41;8.45;;;2.15;;
66893;SDS011;53801;55.786;49.142;2023-02-15T12:33:15;11.93;;;2.55;;
66893;SDS011;53801;55.786;49.142;2023-02-15T12:35:42;11.60;;;3.30;;
66893;SDS011;53801;55.786;49.142;2023-02-15T12:40:36;7.38;;;2.92;;
66893;SDS011;53801;55.786;49.142;2023-02-15T12:43:03;15.85;;;3.35;;
66893;SDS011;53801;55.786;49.142;2023-02-15T12:45:37;9.30;;;2.58;;
66893;SDS011;53801;55.786;49.142;2023-02-15T12:48:12;12.70;;;3.38;;
66893;SDS011;53801;55.786;49.142;2023-02-15T12:50:40;12.33;;;3.40;;
66893;SDS011;53801;55.786;49.142;2023-02-15T12:55:49;6.53;;;2.38;;
66893;SDS011;53801;55.786;49.142;2023-02-15T13:01:32;14.10;;;3.38;;
66893;SDS011;53801;55.786;49.142;2023-02-15T13:04:04;9.03;;;2.00;;
66893;SDS011;53801;55.786;49.142;2023-02-15T13:06:36;12.32;;;3.28;;
66893;SDS011;53801;55.786;49.142;2023-02-15T13:09:11;15.38;;;3.10;;
66893;SDS011;53801;55.786;49.142;2023-02-15T13:11:40;10.75;;;2.70;;
66893;SDS011;53801;55.786;49.142;2023-02-15T13:14:17;7.90;;;2.90;;
66893;SDS011;53801;55.786;49.142;2023-02-15T13:16:44;7.63;;;2.83;;
66893;SDS011;53801;55.786;49.142;2023-02-15T13:19:22;8.32;;;2.17;;
66893;SDS011;53801;55.786;49.142;2023-02-15T13:21:51;10.90;;;3.25;;
66893;SDS011;53801;55.786;49.142;2023-02-15T13:24:19;11.00;;;3.60;;
66893;SDS011;53801;55.786;49.142;2023-02-15T13:26:46;10.30;;;3.33;;
66893;SDS011;53801;55.786;49.142;2023-02-15T13:31:44;9.85;;;2.90;;
66893;SDS011;53801;55.786;49.142;2023-02-15T13:34:18;9.40;;;2.50;;
66893;SDS011;53801;55.786;49.142;2023-02-15T13:37:05;10.52;;;2.80;;
66893;SDS011;53801;55.786;49.142;2023-02-15T13:39:47;9.87;;;2.37;;
66893;SDS011;53801;55.786;49.142;2023-02-15T13:42:32;8.93;;;2.58;;
66893;SDS011;53801;55.786;49.142;2023-02-15T13:56:23;6.97;;;3.00;;
66893;SDS011;53801;55.786;49.142;2023-02-15T14:13:56;12.65;;;3.70;;
66893;SDS011;53801;55.786;49.142;2023-02-15T14:19:16;11.90;;;3.77;;
66893;SDS011;53801;55.786;49.142;2023-02-15T14:21:51;14.00;;;3.17;;
66893;SDS011;53801;55.786;49.142;2023-02-15T14:32:11;13.48;;;3.15;;
66893;SDS011;53801;55.786;49.142;2023-02-15T14:34:59;11.53;;;3.27;;
66893;SDS011;53801;55.786;49.142;2023-02-15T14:56:44;11.35;;;3.50;;
66893;SDS011;53801;55.786;49.142;2023-02-15T14:59:17;12.07;;;3.63;;
66893;SDS011;53801;55.786;49.142;2023-02-15T15:04:54;10.98;;;3.35;;
66893;SDS011;53801;55.786;49.142;2023-02-15T15:07:24;11.85;;;2.58;;
66893;SDS011;53801;55.786;49.142;2023-02-15T15:10:23;8.65;;;2.90;;
66893;SDS011;53801;55.786;49.142;2023-02-15T15:12:52;9.03;;;2.10;;
66893;SDS011;53801;55.786;49.142;2023-02-15T15:17:55;11.70;;;3.70;;
66893;SDS011;53801;55.786;49.142;2023-02-15T15:20:41;13.20;;;3.92;;
66893;SDS011;53801;55.786;49.142;2023-02-15T15:25:45;10.07;;;3.47;;
66893;SDS011;53801;55.786;49.142;2023-02-15T15:31:08;8.27;;;2.47;;
66893;SDS011;53801;55.786;49.142;2023-02-15T15:39:27;8.97;;;2.67;;
66893;SDS011;53801;55.786;49.142;2023-02-15T15:49:43;11.03;;;3.00;;
66893;SDS011;53801;55.786;49.142;2023-02-15T15:52:15;9.55;;;2.88;;
66893;SDS011;53801;55.786;49.142;2023-02-15T15:54:41;12.85;;;3.45;;
66893;SDS011;53801;55.786;49.142;2023-02-15T15:59:45;11.35;;;2.85;;
66893;SDS011;53801;55.786;49.142;2023-02-15T16:02:15;10.77;;;2.87;;
66893;SDS011;53801;55.786;49.142;2023-02-15T16:04:42;6.95;;;2.13;;
66893;SDS011;53801;55.786;49.142;2023-02-15T16:15:44;10.40;;;2.95;;
66893;SDS011;53801;55.786;49.142;2023-02-15T16:20:57;9.48;;;2.28;;
66893;SDS011;53801;55.786;49.142;2023-02-15T16:28:52;7.00;;;2.15;;
66893;SDS011;53801;55.786;49.142;2023-02-15T16:31:18;6.82;;;2.35;;
66893;SDS011;53801;55.786;49.142;2023-02-15T16:33:43;14.77;;;3.27;;
66893;SDS011;53801;55.786;49.142;2023-02-15T16:36:21;15.15;;;3.60;;
66893;SDS011;53801;55.786;49.142;2023-02-15T16:41:14;12.80;;;2.90;;
66893;SDS011;53801;55.786;49.142;2023-02-15T16:43:40;10.57;;;3.75;;
66893;SDS011;53801;55.786;49.142;2023-02-15T16:46:10;12.23;;;3.22;;
66893;SDS011;53801;55.786;49.142;2023-02-15T16:48:41;23.73;;;6.50;;
66893;SDS011;53801;55.786;49.142;2023-02-15T16:51:08;12.13;;;2.40;;
66893;SDS011;53801;55.786;49.142;2023-02-15T16:53:34;15.20;;;4.17;;
66893;SDS011;53801;55.786;49.142;2023-02-15T16:56:01;6.95;;;2.72;;
66893;SDS011;53801;55.786;49.142;2023-02-15T16:58:45;12.57;;;3.10;;
66893;SDS011;53801;55.786;49.142;2023-02-15T17:01:13;10.68;;;2.78;;
66893;SDS011;53801;55.786;49.142;2023-02-15T17:03:39;13.25;;;3.72;;
66893;SDS011;53801;55.786;49.142;2023-02-15T17:06:16;8.85;;;2.67;;
66893;SDS011;53801;55.786;49.142;2023-02-15T17:08:43;13.20;;;4.18;;
66893;SDS011;53801;55.786;49.142;2023-02-15T17:11:19;10.95;;;3.10;;
66893;SDS011;53801;55.786;49.142;2023-02-15T17:16:36;8.93;;;2.40;;
66893;SDS011;53801;55.786;49.142;2023-02-15T17:19:09;8.80;;;2.30;;
66893;SDS011;53801;55.786;49.142;2023-02-15T17:21:42;12.77;;;3.63;;
66893;SDS011;53801;55.786;49.142;2023-02-15T17:24:13;16.77;;;3.78;;
66893;SDS011;53801;55.786;49.142;2023-02-15T17:26:42;9.80;;;3.03;;
66893;SDS011;53801;55.786;49.142;2023-02-15T17:29:16;11.10;;;3.23;;
66893;SDS011;53801;55.786;49.142;2023-02-15T17:31:48;10.52;;;3.03;;
66893;SDS011;53801;55.786;49.142;2023-02-15T17:36:58;12.25;;;3.55;;
66893;SDS011;53801;55.786;49.142;2023-02-15T17:39:24;10.82;;;3.17;;
66893;SDS011;53801;55.786;49.142;2023-02-15T17:41:51;13.15;;;3.40;;
66893;SDS011;53801;55.786;49.142;2023-02-15T17:44:18;11.33;;;3.23;;
66893;SDS011;53801;55.786;49.142;2023-02-15T17:46:43;9.30;;;2.85;;
66893;SDS011;53801;55.786;49.142;2023-02-15T17:49:23;11.37;;;3.43;;
66893;SDS011;53801;55.786;49.142;2023-02-15T17:51:54;12.57;;;3.45;;
66893;SDS011;53801;55.786;49.142;2023-02-15T17:54:22;8.83;;;2.97;;
66893;SDS011;53801;55.786;49.142;2023-02-15T17:57:10;11.05;;;3.38;;
66893;SDS011;53801;55.786;49.142;2023-02-15T17:59:37;14.50;;;3.95;;
66893;SDS011;53801;55.786;49.142;2023-02-15T18:02:21;10.25;;;3.58;;
66893;SDS011;53801;55.786;49.142;2023-02-15T18:05:07;13.43;;;3.67;;
66893;SDS011;53801;55.786;49.142;2023-02-15T18:07:54;11.20;;;3.27;;
66893;SDS011;53801;55.786;49.142;2023-02-15T18:10:41;10.98;;;3.17;;
66893;SDS011;53801;55.786;49.142;2023-02-15T18:13:30;9.75;;;2.75;;
66893;SDS011;53801;55.786;49.142;2023-02-15T18:15:55;11.37;;;3.30;;
66893;SDS011;53801;55.786;49.142;2023-02-15T18:18:22;12.85;;;3.10;;
66893;SDS011;53801;55.786;49.142;2023-02-15T18:20:50;11.80;;;3.72;;
66893;SDS011;53801;55.786;49.142;2023-02-15T18:23:19;13.32;;;3.72;;
66893;SDS011;53801;55.786;49.142;2023-02-15T18:25:45;15.15;;;3.97;;
66893;SDS011;53801;55.786;49.142;2023-02-15T18:28:11;11.50;;;3.90;;
66893;SDS011;53801;55.786;49.142;2023-02-15T18:30:38;14.02;;;3.95;;
66893;SDS011;53801;55.786;49.142;2023-02-15T18:33:11;12.83;;;4.20;;
66893;SDS011;53801;55.786;49.142;2023-02-15T18:35:40;15.82;;;4.05;;
66893;SDS011;53801;55.786;49.142;2023-02-15T18:38:07;14.75;;;4.63;;
66893;SDS011;53801;55.786;49.142;2023-02-15T18:40:41;9.93;;;4.03;;